This is the latest recevied weather packets stored in our database for station/object K5KHP. If no packets are shown the sender has not sent any weather packets the latest 1 day(s).
| Time | Temp. | Humidity | Pressure | Rain* | Wind** | Luminosity | Snow |
|---|---|---|---|---|---|---|---|
| 1778083358 | 17.22° C | 71% | 1017.9 hPa | 0 mm | - | 330 W/m² | - |
| 1778083057 | 17.22° C | 72% | 1017.8 hPa | 0 mm | - | 286 W/m² | - |
| 1778082754 | 17.22° C | 71% | 1017.8 hPa | 0 mm | - | 275 W/m² | - |
| 1778080719 | 16.11° C | 73% | 1017.8 hPa | 0 mm | - | 198 W/m² | - |
| 1778080415 | 15.56° C | 75% | 1017.9 hPa | 0 mm | - | 185 W/m² | - |
| 1778078900 | 13.89° C | 79% | 1017.7 hPa | 0 mm | - | 128 W/m² | - |
| 1778078295 | 13.33° C | 82% | 1017.8 hPa | 0 mm | - | 107 W/m² | - |
| 1778077690 | 12.78° C | 83% | 1017.6 hPa | 0 mm | - | 86 W/m² | - |
| 1778077086 | 12.78° C | 84% | 1017.5 hPa | 0 mm | - | 69 W/m² | - |
| 1778076481 | 12.22° C | 85% | 1017.5 hPa | 0 mm | - | 56 W/m² | - |
| 1778075875 | 11.67° C | 86% | 1017.6 hPa | 0 mm | - | 45 W/m² | - |
| 1778075268 | 11.67° C | 87% | 1017.5 hPa | 0 mm | - | 33 W/m² | - |
| 1778074358 | 10.56° C | 90% | 1017.5 hPa | 0 mm | - | 19 W/m² | - |
| 1778074055 | 10.56° C | 90% | 1017.3 hPa | 0 mm | - | 13 W/m² | - |
| 1778073752 | 10.56° C | 90% | 1017.4 hPa | 0 mm | - | 10 W/m² | - |
| 1778073450 | 10.56° C | 90% | 1017.3 hPa | 0 mm | - | 8 W/m² | - |
| 1778072238 | 10.56° C | 90% | 1017.2 hPa | 0 mm | - | 0 W/m² | - |
| 1778071331 | 10.56° C | 90% | 1017 hPa | 0 mm | - | 0 W/m² | - |
| 1778071028 | 10.56° C | 90% | 1016.9 hPa | 0 mm | - | 0 W/m² | - |
| 1778070121 | 10.56° C | 89% | 1016.9 hPa | 0 mm | - | 0 W/m² | - |
| 1778068608 | 11.11° C | 90% | 1016.7 hPa | 0 mm | - | 0 W/m² | - |
| 1778068306 | 11.11° C | 90% | 1016.6 hPa | 0 mm | - | 0 W/m² | - |
| 1778068003 | 11.11° C | 90% | 1016.5 hPa | 0 mm | - | 0 W/m² | - |
| 1778067096 | 11.11° C | 90% | 1016.5 hPa | 0 mm | - | 0 W/m² | - |
| 1778066792 | 11.11° C | 90% | 1016.6 hPa | 0 mm | - | 0 W/m² | - |
* Rain latest hour (hover to see other rain measurements)
** Current wind speed in m/s (hover to see current wind gust speed)